Itaguacu da Bahia, Brazil
Current Conditions -  °F | °C
As of 11:00 AM on Tuesday 21 Oct 2014 (Local Time) from SBPL Reporting Station
Scattered Clouds Scattered Clouds  
Wind Chill: 91°   Ceiling: Unl
Heat Index: 95°   Visibility: 6mi
Dew Point: 68°   Wind: 14mph
Humidity: 46%   Direction: 120°ESE
Pressure: 29.97"   Gusts: NA
Location:  11.01°S, 42.4°W
Report Text: SBPL 211400Z 12012KT 9999 SCT040 33/20 Q1015
Loading
Personal Weather Stations






























Interactive Weather Map
Tropical Storm Tracking
New forecast layout! Learn more

10-Day Weather Forecast

Advertisements
Track Severe Weather on mobile